sensor_id;sensor_type;location;lat;lon;timestamp;P1;durP1;ratioP1;P2;durP2;ratioP2
57249;SDS011;43102;52.014;-0.680;2023-05-13T00:00:00;17.80;;;10.40;;
57249;SDS011;43102;52.014;-0.680;2023-05-13T00:01:00;18.90;;;10.70;;
57249;SDS011;43102;52.014;-0.680;2023-05-13T00:02:01;18.90;;;10.70;;
57249;SDS011;43102;52.014;-0.680;2023-05-13T00:03:00;18.90;;;10.70;;
57249;SDS011;43102;52.014;-0.680;2023-05-13T00:04:00;18.90;;;10.70;;
57249;SDS011;43102;52.014;-0.680;2023-05-13T00:05:00;18.90;;;10.70;;
57249;SDS011;43102;52.014;-0.680;2023-05-13T00:06:00;18.90;;;10.70;;
57249;SDS011;43102;52.014;-0.680;2023-05-13T00:07:00;18.90;;;10.70;;
57249;SDS011;43102;52.014;-0.680;2023-05-13T00:08:05;18.90;;;10.70;;
57249;SDS011;43102;52.014;-0.680;2023-05-13T00:09:01;18.90;;;10.70;;
57249;SDS011;43102;52.014;-0.680;2023-05-13T00:10:00;18.90;;;10.70;;
57249;SDS011;43102;52.014;-0.680;2023-05-13T00:11:00;18.90;;;10.70;;
57249;SDS011;43102;52.014;-0.680;2023-05-13T00:12:02;18.90;;;10.70;;
57249;SDS011;43102;52.014;-0.680;2023-05-13T00:13:00;18.90;;;10.70;;
57249;SDS011;43102;52.014;-0.680;2023-05-13T00:14:00;18.90;;;10.70;;
57249;SDS011;43102;52.014;-0.680;2023-05-13T00:15:00;18.90;;;10.70;;
57249;SDS011;43102;52.014;-0.680;2023-05-13T00:16:02;18.90;;;10.70;;
57249;SDS011;43102;52.014;-0.680;2023-05-13T00:17:03;18.90;;;10.70;;
57249;SDS011;43102;52.014;-0.680;2023-05-13T00:18:00;18.90;;;10.70;;
57249;SDS011;43102;52.014;-0.680;2023-05-13T00:19:00;18.90;;;10.70;;
57249;SDS011;43102;52.014;-0.680;2023-05-13T00:20:00;18.90;;;10.70;;
57249;SDS011;43102;52.014;-0.680;2023-05-13T00:21:00;18.90;;;10.70;;
57249;SDS011;43102;52.014;-0.680;2023-05-13T00:22:00;18.90;;;10.70;;
57249;SDS011;43102;52.014;-0.680;2023-05-13T00:23:02;18.90;;;10.70;;
57249;SDS011;43102;52.014;-0.680;2023-05-13T00:24:00;18.90;;;10.70;;
57249;SDS011;43102;52.014;-0.680;2023-05-13T00:25:01;18.90;;;10.70;;
57249;SDS011;43102;52.014;-0.680;2023-05-13T00:26:00;18.90;;;10.70;;
57249;SDS011;43102;52.014;-0.680;2023-05-13T00:27:00;18.90;;;10.70;;
57249;SDS011;43102;52.014;-0.680;2023-05-13T00:28:00;18.90;;;10.70;;
57249;SDS011;43102;52.014;-0.680;2023-05-13T00:29:00;18.90;;;10.70;;
57249;SDS011;43102;52.014;-0.680;2023-05-13T00:30:00;18.90;;;10.70;;
57249;SDS011;43102;52.014;-0.680;2023-05-13T00:31:00;18.60;;;10.60;;
57249;SDS011;43102;52.014;-0.680;2023-05-13T00:32:00;18.60;;;10.60;;
57249;SDS011;43102;52.014;-0.680;2023-05-13T00:33:00;18.60;;;10.60;;
57249;SDS011;43102;52.014;-0.680;2023-05-13T00:34:00;18.60;;;10.60;;
57249;SDS011;43102;52.014;-0.680;2023-05-13T00:35:00;18.60;;;10.60;;
57249;SDS011;43102;52.014;-0.680;2023-05-13T00:36:01;18.60;;;10.60;;
57249;SDS011;43102;52.014;-0.680;2023-05-13T00:37:00;18.60;;;10.60;;
57249;SDS011;43102;52.014;-0.680;2023-05-13T00:38:00;18.60;;;10.60;;
57249;SDS011;43102;52.014;-0.680;2023-05-13T00:39:00;18.60;;;10.60;;
57249;SDS011;43102;52.014;-0.680;2023-05-13T00:40:00;18.60;;;10.60;;
57249;SDS011;43102;52.014;-0.680;2023-05-13T00:41:01;18.60;;;10.60;;
57249;SDS011;43102;52.014;-0.680;2023-05-13T00:42:03;18.60;;;10.60;;
57249;SDS011;43102;52.014;-0.680;2023-05-13T00:43:00;18.60;;;10.60;;
57249;SDS011;43102;52.014;-0.680;2023-05-13T00:44:00;18.60;;;10.60;;
57249;SDS011;43102;52.014;-0.680;2023-05-13T00:45:00;18.60;;;10.60;;
57249;SDS011;43102;52.014;-0.680;2023-05-13T00:46:00;18.60;;;10.60;;
57249;SDS011;43102;52.014;-0.680;2023-05-13T00:47:00;18.60;;;10.60;;
57249;SDS011;43102;52.014;-0.680;2023-05-13T00:48:00;18.60;;;10.60;;
57249;SDS011;43102;52.014;-0.680;2023-05-13T00:49:01;18.60;;;10.60;;
57249;SDS011;43102;52.014;-0.680;2023-05-13T00:50:00;18.60;;;10.60;;
57249;SDS011;43102;52.014;-0.680;2023-05-13T00:51:00;18.60;;;10.60;;
57249;SDS011;43102;52.014;-0.680;2023-05-13T00:52:01;18.60;;;10.60;;
57249;SDS011;43102;52.014;-0.680;2023-05-13T00:53:02;18.60;;;10.60;;
57249;SDS011;43102;52.014;-0.680;2023-05-13T00:54:00;18.60;;;10.60;;
57249;SDS011;43102;52.014;-0.680;2023-05-13T00:55:02;18.60;;;10.60;;
57249;SDS011;43102;52.014;-0.680;2023-05-13T00:56:00;18.60;;;10.60;;
57249;SDS011;43102;52.014;-0.680;2023-05-13T00:57:00;18.60;;;10.60;;
57249;SDS011;43102;52.014;-0.680;2023-05-13T00:58:00;18.60;;;10.60;;
57249;SDS011;43102;52.014;-0.680;2023-05-13T00:59:00;18.60;;;10.60;;
57249;SDS011;43102;52.014;-0.680;2023-05-13T01:00:01;18.60;;;10.60;;
57249;SDS011;43102;52.014;-0.680;2023-05-13T01:02:06;17.20;;;9.00;;
57249;SDS011;43102;52.014;-0.680;2023-05-13T01:03:13;17.20;;;9.00;;
57249;SDS011;43102;52.014;-0.680;2023-05-13T01:06:09;17.20;;;9.00;;
57249;SDS011;43102;52.014;-0.680;2023-05-13T01:07:19;17.20;;;9.00;;
57249;SDS011;43102;52.014;-0.680;2023-05-13T01:11:03;17.20;;;9.00;;
57249;SDS011;43102;52.014;-0.680;2023-05-13T01:12:06;17.20;;;9.00;;
57249;SDS011;43102;52.014;-0.680;2023-05-13T01:13:06;17.20;;;9.00;;
57249;SDS011;43102;52.014;-0.680;2023-05-13T01:14:06;17.20;;;9.00;;
57249;SDS011;43102;52.014;-0.680;2023-05-13T01:16:06;17.20;;;9.00;;
57249;SDS011;43102;52.014;-0.680;2023-05-13T01:17:14;17.20;;;9.00;;
57249;SDS011;43102;52.014;-0.680;2023-05-13T01:18:05;17.20;;;9.00;;
57249;SDS011;43102;52.014;-0.680;2023-05-13T01:19:06;17.20;;;9.00;;
57249;SDS011;43102;52.014;-0.680;2023-05-13T01:20:02;17.20;;;9.00;;
57249;SDS011;43102;52.014;-0.680;2023-05-13T01:21:00;17.20;;;9.00;;
57249;SDS011;43102;52.014;-0.680;2023-05-13T01:22:00;17.20;;;9.00;;
57249;SDS011;43102;52.014;-0.680;2023-05-13T01:23:02;17.20;;;9.00;;
57249;SDS011;43102;52.014;-0.680;2023-05-13T01:24:00;17.20;;;9.00;;
57249;SDS011;43102;52.014;-0.680;2023-05-13T01:25:00;17.20;;;9.00;;
57249;SDS011;43102;52.014;-0.680;2023-05-13T01:26:00;17.20;;;9.00;;
57249;SDS011;43102;52.014;-0.680;2023-05-13T01:27:00;17.20;;;9.00;;
57249;SDS011;43102;52.014;-0.680;2023-05-13T01:28:00;17.20;;;9.00;;
57249;SDS011;43102;52.014;-0.680;2023-05-13T01:29:00;17.20;;;9.00;;
57249;SDS011;43102;52.014;-0.680;2023-05-13T01:30:00;17.20;;;9.00;;
57249;SDS011;43102;52.014;-0.680;2023-05-13T01:31:00;16.70;;;10.10;;
57249;SDS011;43102;52.014;-0.680;2023-05-13T01:32:01;16.70;;;10.10;;
57249;SDS011;43102;52.014;-0.680;2023-05-13T01:33:01;16.70;;;10.10;;
57249;SDS011;43102;52.014;-0.680;2023-05-13T01:34:01;16.70;;;10.10;;
57249;SDS011;43102;52.014;-0.680;2023-05-13T01:35:02;16.70;;;10.10;;
57249;SDS011;43102;52.014;-0.680;2023-05-13T01:36:01;16.70;;;10.10;;
57249;SDS011;43102;52.014;-0.680;2023-05-13T01:37:00;16.70;;;10.10;;
57249;SDS011;43102;52.014;-0.680;2023-05-13T01:38:01;16.70;;;10.10;;
57249;SDS011;43102;52.014;-0.680;2023-05-13T01:39:00;16.70;;;10.10;;
57249;SDS011;43102;52.014;-0.680;2023-05-13T01:40:00;16.70;;;10.10;;
57249;SDS011;43102;52.014;-0.680;2023-05-13T01:41:01;16.70;;;10.10;;
57249;SDS011;43102;52.014;-0.680;2023-05-13T01:42:00;16.70;;;10.10;;
57249;SDS011;43102;52.014;-0.680;2023-05-13T01:43:00;16.70;;;10.10;;
57249;SDS011;43102;52.014;-0.680;2023-05-13T01:44:00;16.70;;;10.10;;
57249;SDS011;43102;52.014;-0.680;2023-05-13T01:45:00;16.70;;;10.10;;
57249;SDS011;43102;52.014;-0.680;2023-05-13T01:46:00;16.70;;;10.10;;
57249;SDS011;43102;52.014;-0.680;2023-05-13T01:47:00;16.70;;;10.10;;
57249;SDS011;43102;52.014;-0.680;2023-05-13T01:48:00;16.70;;;10.10;;
57249;SDS011;43102;52.014;-0.680;2023-05-13T01:49:00;16.70;;;10.10;;
57249;SDS011;43102;52.014;-0.680;2023-05-13T01:50:00;16.70;;;10.10;;
57249;SDS011;43102;52.014;-0.680;2023-05-13T01:51:00;16.70;;;10.10;;
57249;SDS011;43102;52.014;-0.680;2023-05-13T01:52:00;16.70;;;10.10;;
57249;SDS011;43102;52.014;-0.680;2023-05-13T01:53:00;16.70;;;10.10;;
57249;SDS011;43102;52.014;-0.680;2023-05-13T01:54:00;16.70;;;10.10;;
57249;SDS011;43102;52.014;-0.680;2023-05-13T01:55:00;16.70;;;10.10;;
57249;SDS011;43102;52.014;-0.680;2023-05-13T01:56:00;16.70;;;10.10;;
57249;SDS011;43102;52.014;-0.680;2023-05-13T01:57:00;16.70;;;10.10;;
57249;SDS011;43102;52.014;-0.680;2023-05-13T01:58:00;16.70;;;10.10;;
57249;SDS011;43102;52.014;-0.680;2023-05-13T01:59:00;16.70;;;10.10;;
57249;SDS011;43102;52.014;-0.680;2023-05-13T02:00:00;16.70;;;10.10;;
57249;SDS011;43102;52.014;-0.680;2023-05-13T02:01:00;14.80;;;9.50;;
57249;SDS011;43102;52.014;-0.680;2023-05-13T02:02:00;14.80;;;9.50;;
57249;SDS011;43102;52.014;-0.680;2023-05-13T02:03:00;14.80;;;9.50;;
57249;SDS011;43102;52.014;-0.680;2023-05-13T02:04:00;14.80;;;9.50;;
57249;SDS011;43102;52.014;-0.680;2023-05-13T02:05:00;14.80;;;9.50;;
57249;SDS011;43102;52.014;-0.680;2023-05-13T02:06:00;14.80;;;9.50;;
57249;SDS011;43102;52.014;-0.680;2023-05-13T02:07:00;14.80;;;9.50;;
57249;SDS011;43102;52.014;-0.680;2023-05-13T02:08:00;14.80;;;9.50;;
57249;SDS011;43102;52.014;-0.680;2023-05-13T02:09:00;14.80;;;9.50;;
57249;SDS011;43102;52.014;-0.680;2023-05-13T02:10:00;14.80;;;9.50;;
57249;SDS011;43102;52.014;-0.680;2023-05-13T02:11:00;14.80;;;9.50;;
57249;SDS011;43102;52.014;-0.680;2023-05-13T02:12:00;14.80;;;9.50;;
57249;SDS011;43102;52.014;-0.680;2023-05-13T02:13:00;14.80;;;9.50;;
57249;SDS011;43102;52.014;-0.680;2023-05-13T02:14:00;14.80;;;9.50;;
57249;SDS011;43102;52.014;-0.680;2023-05-13T02:15:00;14.80;;;9.50;;
57249;SDS011;43102;52.014;-0.680;2023-05-13T02:16:01;14.80;;;9.50;;
57249;SDS011;43102;52.014;-0.680;2023-05-13T02:17:00;14.80;;;9.50;;
57249;SDS011;43102;52.014;-0.680;2023-05-13T02:18:00;14.80;;;9.50;;
57249;SDS011;43102;52.014;-0.680;2023-05-13T02:19:00;14.80;;;9.50;;
57249;SDS011;43102;52.014;-0.680;2023-05-13T02:20:00;14.80;;;9.50;;
57249;SDS011;43102;52.014;-0.680;2023-05-13T02:21:00;14.80;;;9.50;;
57249;SDS011;43102;52.014;-0.680;2023-05-13T02:22:00;14.80;;;9.50;;
57249;SDS011;43102;52.014;-0.680;2023-05-13T02:23:00;14.80;;;9.50;;
57249;SDS011;43102;52.014;-0.680;2023-05-13T02:24:00;14.80;;;9.50;;
57249;SDS011;43102;52.014;-0.680;2023-05-13T02:25:01;14.80;;;9.50;;
57249;SDS011;43102;52.014;-0.680;2023-05-13T02:26:00;14.80;;;9.50;;
57249;SDS011;43102;52.014;-0.680;2023-05-13T02:27:01;14.80;;;9.50;;
57249;SDS011;43102;52.014;-0.680;2023-05-13T02:28:00;14.80;;;9.50;;
57249;SDS011;43102;52.014;-0.680;2023-05-13T02:29:00;14.80;;;9.50;;
57249;SDS011;43102;52.014;-0.680;2023-05-13T02:30:00;14.80;;;9.50;;
57249;SDS011;43102;52.014;-0.680;2023-05-13T02:31:00;14.00;;;8.20;;
57249;SDS011;43102;52.014;-0.680;2023-05-13T02:32:00;14.00;;;8.20;;
57249;SDS011;43102;52.014;-0.680;2023-05-13T02:33:00;14.00;;;8.20;;
57249;SDS011;43102;52.014;-0.680;2023-05-13T02:34:00;14.00;;;8.20;;
57249;SDS011;43102;52.014;-0.680;2023-05-13T02:35:00;14.00;;;8.20;;
57249;SDS011;43102;52.014;-0.680;2023-05-13T02:36:00;14.00;;;8.20;;
57249;SDS011;43102;52.014;-0.680;2023-05-13T02:37:02;14.00;;;8.20;;
57249;SDS011;43102;52.014;-0.680;2023-05-13T02:38:03;14.00;;;8.20;;
57249;SDS011;43102;52.014;-0.680;2023-05-13T02:39:00;14.00;;;8.20;;
57249;SDS011;43102;52.014;-0.680;2023-05-13T02:40:00;14.00;;;8.20;;
57249;SDS011;43102;52.014;-0.680;2023-05-13T02:41:00;14.00;;;8.20;;
57249;SDS011;43102;52.014;-0.680;2023-05-13T02:42:01;14.00;;;8.20;;
57249;SDS011;43102;52.014;-0.680;2023-05-13T02:43:00;14.00;;;8.20;;
57249;SDS011;43102;52.014;-0.680;2023-05-13T02:44:00;14.00;;;8.20;;
57249;SDS011;43102;52.014;-0.680;2023-05-13T02:45:00;14.00;;;8.20;;
57249;SDS011;43102;52.014;-0.680;2023-05-13T02:46:01;14.00;;;8.20;;
57249;SDS011;43102;52.014;-0.680;2023-05-13T02:47:00;14.00;;;8.20;;
57249;SDS011;43102;52.014;-0.680;2023-05-13T02:48:00;14.00;;;8.20;;
57249;SDS011;43102;52.014;-0.680;2023-05-13T02:49:00;14.00;;;8.20;;
57249;SDS011;43102;52.014;-0.680;2023-05-13T02:50:02;14.00;;;8.20;;
57249;SDS011;43102;52.014;-0.680;2023-05-13T02:51:00;14.00;;;8.20;;
57249;SDS011;43102;52.014;-0.680;2023-05-13T02:52:00;14.00;;;8.20;;
57249;SDS011;43102;52.014;-0.680;2023-05-13T02:53:00;14.00;;;8.20;;
57249;SDS011;43102;52.014;-0.680;2023-05-13T02:54:00;14.00;;;8.20;;
57249;SDS011;43102;52.014;-0.680;2023-05-13T02:55:01;14.00;;;8.20;;
57249;SDS011;43102;52.014;-0.680;2023-05-13T02:56:00;14.00;;;8.20;;
57249;SDS011;43102;52.014;-0.680;2023-05-13T02:57:00;14.00;;;8.20;;
57249;SDS011;43102;52.014;-0.680;2023-05-13T02:58:00;14.00;;;8.20;;
57249;SDS011;43102;52.014;-0.680;2023-05-13T02:59:00;14.00;;;8.20;;
57249;SDS011;43102;52.014;-0.680;2023-05-13T03:00:01;14.00;;;8.20;;
57249;SDS011;43102;52.014;-0.680;2023-05-13T03:01:00;12.70;;;7.80;;
57249;SDS011;43102;52.014;-0.680;2023-05-13T03:02:00;12.70;;;7.80;;
57249;SDS011;43102;52.014;-0.680;2023-05-13T03:03:00;12.70;;;7.80;;
57249;SDS011;43102;52.014;-0.680;2023-05-13T03:04:01;12.70;;;7.80;;
57249;SDS011;43102;52.014;-0.680;2023-05-13T03:05:00;12.70;;;7.80;;
57249;SDS011;43102;52.014;-0.680;2023-05-13T03:06:00;12.70;;;7.80;;
57249;SDS011;43102;52.014;-0.680;2023-05-13T03:07:00;12.70;;;7.80;;
57249;SDS011;43102;52.014;-0.680;2023-05-13T03:08:00;12.70;;;7.80;;
57249;SDS011;43102;52.014;-0.680;2023-05-13T03:09:00;12.70;;;7.80;;
57249;SDS011;43102;52.014;-0.680;2023-05-13T03:10:00;12.70;;;7.80;;
57249;SDS011;43102;52.014;-0.680;2023-05-13T03:11:00;12.70;;;7.80;;
57249;SDS011;43102;52.014;-0.680;2023-05-13T03:12:00;12.70;;;7.80;;
57249;SDS011;43102;52.014;-0.680;2023-05-13T03:13:00;12.70;;;7.80;;
57249;SDS011;43102;52.014;-0.680;2023-05-13T03:14:00;12.70;;;7.80;;
57249;SDS011;43102;52.014;-0.680;2023-05-13T03:15:01;12.70;;;7.80;;
57249;SDS011;43102;52.014;-0.680;2023-05-13T03:16:01;12.70;;;7.80;;
57249;SDS011;43102;52.014;-0.680;2023-05-13T03:17:00;12.70;;;7.80;;
57249;SDS011;43102;52.014;-0.680;2023-05-13T03:18:00;12.70;;;7.80;;
57249;SDS011;43102;52.014;-0.680;2023-05-13T03:19:00;12.70;;;7.80;;
57249;SDS011;43102;52.014;-0.680;2023-05-13T03:20:00;12.70;;;7.80;;
57249;SDS011;43102;52.014;-0.680;2023-05-13T03:21:00;12.70;;;7.80;;
57249;SDS011;43102;52.014;-0.680;2023-05-13T03:22:00;12.70;;;7.80;;
57249;SDS011;43102;52.014;-0.680;2023-05-13T03:23:00;12.70;;;7.80;;
57249;SDS011;43102;52.014;-0.680;2023-05-13T03:24:00;12.70;;;7.80;;
57249;SDS011;43102;52.014;-0.680;2023-05-13T03:25:00;12.70;;;7.80;;
57249;SDS011;43102;52.014;-0.680;2023-05-13T03:26:01;12.70;;;7.80;;
57249;SDS011;43102;52.014;-0.680;2023-05-13T03:27:00;12.70;;;7.80;;
57249;SDS011;43102;52.014;-0.680;2023-05-13T03:28:02;12.70;;;7.80;;
57249;SDS011;43102;52.014;-0.680;2023-05-13T03:29:00;12.70;;;7.80;;
57249;SDS011;43102;52.014;-0.680;2023-05-13T03:30:00;12.70;;;7.80;;
57249;SDS011;43102;52.014;-0.680;2023-05-13T03:31:00;14.70;;;7.70;;
57249;SDS011;43102;52.014;-0.680;2023-05-13T03:32:00;14.70;;;7.70;;
57249;SDS011;43102;52.014;-0.680;2023-05-13T03:33:00;14.70;;;7.70;;
57249;SDS011;43102;52.014;-0.680;2023-05-13T03:34:00;14.70;;;7.70;;
57249;SDS011;43102;52.014;-0.680;2023-05-13T03:35:00;14.70;;;7.70;;
57249;SDS011;43102;52.014;-0.680;2023-05-13T03:36:00;14.70;;;7.70;;
57249;SDS011;43102;52.014;-0.680;2023-05-13T03:37:01;14.70;;;7.70;;
57249;SDS011;43102;52.014;-0.680;2023-05-13T03:38:00;14.70;;;7.70;;
57249;SDS011;43102;52.014;-0.680;2023-05-13T03:39:00;14.70;;;7.70;;
57249;SDS011;43102;52.014;-0.680;2023-05-13T03:40:00;14.70;;;7.70;;
57249;SDS011;43102;52.014;-0.680;2023-05-13T03:41:00;14.70;;;7.70;;
57249;SDS011;43102;52.014;-0.680;2023-05-13T03:42:01;14.70;;;7.70;;
57249;SDS011;43102;52.014;-0.680;2023-05-13T03:43:00;14.70;;;7.70;;
57249;SDS011;43102;52.014;-0.680;2023-05-13T03:44:00;14.70;;;7.70;;
57249;SDS011;43102;52.014;-0.680;2023-05-13T03:45:00;14.70;;;7.70;;
57249;SDS011;43102;52.014;-0.680;2023-05-13T03:46:00;14.70;;;7.70;;
57249;SDS011;43102;52.014;-0.680;2023-05-13T03:47:00;14.70;;;7.70;;
57249;SDS011;43102;52.014;-0.680;2023-05-13T03:48:00;14.70;;;7.70;;
57249;SDS011;43102;52.014;-0.680;2023-05-13T03:49:00;14.70;;;7.70;;
57249;SDS011;43102;52.014;-0.680;2023-05-13T03:50:00;14.70;;;7.70;;
57249;SDS011;43102;52.014;-0.680;2023-05-13T03:51:01;14.70;;;7.70;;
57249;SDS011;43102;52.014;-0.680;2023-05-13T03:52:00;14.70;;;7.70;;
57249;SDS011;43102;52.014;-0.680;2023-05-13T03:53:01;14.70;;;7.70;;
57249;SDS011;43102;52.014;-0.680;2023-05-13T03:54:01;14.70;;;7.70;;
57249;SDS011;43102;52.014;-0.680;2023-05-13T03:55:00;14.70;;;7.70;;
57249;SDS011;43102;52.014;-0.680;2023-05-13T03:56:00;14.70;;;7.70;;
57249;SDS011;43102;52.014;-0.680;2023-05-13T03:57:00;14.70;;;7.70;;
57249;SDS011;43102;52.014;-0.680;2023-05-13T03:58:11;14.70;;;7.70;;
57249;SDS011;43102;52.014;-0.680;2023-05-13T03:59:00;14.70;;;7.70;;
57249;SDS011;43102;52.014;-0.680;2023-05-13T04:00:00;14.70;;;7.70;;
57249;SDS011;43102;52.014;-0.680;2023-05-13T04:01:00;11.50;;;7.00;;
57249;SDS011;43102;52.014;-0.680;2023-05-13T04:02:00;11.50;;;7.00;;
57249;SDS011;43102;52.014;-0.680;2023-05-13T04:03:00;11.50;;;7.00;;
57249;SDS011;43102;52.014;-0.680;2023-05-13T04:04:00;11.50;;;7.00;;
57249;SDS011;43102;52.014;-0.680;2023-05-13T04:05:00;11.50;;;7.00;;
57249;SDS011;43102;52.014;-0.680;2023-05-13T04:06:00;11.50;;;7.00;;
57249;SDS011;43102;52.014;-0.680;2023-05-13T04:07:00;11.50;;;7.00;;
57249;SDS011;43102;52.014;-0.680;2023-05-13T04:08:00;11.50;;;7.00;;
57249;SDS011;43102;52.014;-0.680;2023-05-13T04:09:03;11.50;;;7.00;;
57249;SDS011;43102;52.014;-0.680;2023-05-13T04:10:00;11.50;;;7.00;;
57249;SDS011;43102;52.014;-0.680;2023-05-13T04:11:00;11.50;;;7.00;;
57249;SDS011;43102;52.014;-0.680;2023-05-13T04:12:00;11.50;;;7.00;;
57249;SDS011;43102;52.014;-0.680;2023-05-13T04:13:00;11.50;;;7.00;;
57249;SDS011;43102;52.014;-0.680;2023-05-13T04:14:00;11.50;;;7.00;;
57249;SDS011;43102;52.014;-0.680;2023-05-13T04:15:00;11.50;;;7.00;;
57249;SDS011;43102;52.014;-0.680;2023-05-13T04:16:00;11.50;;;7.00;;
57249;SDS011;43102;52.014;-0.680;2023-05-13T04:17:00;11.50;;;7.00;;
57249;SDS011;43102;52.014;-0.680;2023-05-13T04:18:00;11.50;;;7.00;;
57249;SDS011;43102;52.014;-0.680;2023-05-13T04:19:00;11.50;;;7.00;;
57249;SDS011;43102;52.014;-0.680;2023-05-13T04:20:00;11.50;;;7.00;;
57249;SDS011;43102;52.014;-0.680;2023-05-13T04:21:05;11.50;;;7.00;;
57249;SDS011;43102;52.014;-0.680;2023-05-13T04:22:00;11.50;;;7.00;;
57249;SDS011;43102;52.014;-0.680;2023-05-13T04:23:00;11.50;;;7.00;;
57249;SDS011;43102;52.014;-0.680;2023-05-13T04:24:00;11.50;;;7.00;;
57249;SDS011;43102;52.014;-0.680;2023-05-13T04:25:00;11.50;;;7.00;;
57249;SDS011;43102;52.014;-0.680;2023-05-13T04:26:00;11.50;;;7.00;;
57249;SDS011;43102;52.014;-0.680;2023-05-13T04:27:01;11.50;;;7.00;;
57249;SDS011;43102;52.014;-0.680;2023-05-13T04:28:00;11.50;;;7.00;;
57249;SDS011;43102;52.014;-0.680;2023-05-13T04:29:00;11.50;;;7.00;;
57249;SDS011;43102;52.014;-0.680;2023-05-13T04:30:01;11.50;;;7.00;;
57249;SDS011;43102;52.014;-0.680;2023-05-13T04:31:01;10.20;;;7.00;;
57249;SDS011;43102;52.014;-0.680;2023-05-13T04:32:00;10.20;;;7.00;;
57249;SDS011;43102;52.014;-0.680;2023-05-13T04:33:00;10.20;;;7.00;;
57249;SDS011;43102;52.014;-0.680;2023-05-13T04:34:00;10.20;;;7.00;;
57249;SDS011;43102;52.014;-0.680;2023-05-13T04:35:00;10.20;;;7.00;;
57249;SDS011;43102;52.014;-0.680;2023-05-13T04:36:00;10.20;;;7.00;;
57249;SDS011;43102;52.014;-0.680;2023-05-13T04:37:00;10.20;;;7.00;;
57249;SDS011;43102;52.014;-0.680;2023-05-13T04:38:00;10.20;;;7.00;;
57249;SDS011;43102;52.014;-0.680;2023-05-13T04:39:00;10.20;;;7.00;;
57249;SDS011;43102;52.014;-0.680;2023-05-13T04:40:00;10.20;;;7.00;;
57249;SDS011;43102;52.014;-0.680;2023-05-13T04:41:00;10.20;;;7.00;;
57249;SDS011;43102;52.014;-0.680;2023-05-13T04:42:00;10.20;;;7.00;;
57249;SDS011;43102;52.014;-0.680;2023-05-13T04:43:00;10.20;;;7.00;;
57249;SDS011;43102;52.014;-0.680;2023-05-13T04:44:01;10.20;;;7.00;;
57249;SDS011;43102;52.014;-0.680;2023-05-13T04:45:00;10.20;;;7.00;;
57249;SDS011;43102;52.014;-0.680;2023-05-13T04:46:00;10.20;;;7.00;;
57249;SDS011;43102;52.014;-0.680;2023-05-13T04:47:00;10.20;;;7.00;;
57249;SDS011;43102;52.014;-0.680;2023-05-13T04:48:00;10.20;;;7.00;;
57249;SDS011;43102;52.014;-0.680;2023-05-13T04:49:01;10.20;;;7.00;;
57249;SDS011;43102;52.014;-0.680;2023-05-13T04:50:02;10.20;;;7.00;;
57249;SDS011;43102;52.014;-0.680;2023-05-13T04:51:01;10.20;;;7.00;;
57249;SDS011;43102;52.014;-0.680;2023-05-13T04:52:01;10.20;;;7.00;;
57249;SDS011;43102;52.014;-0.680;2023-05-13T04:53:00;10.20;;;7.00;;
57249;SDS011;43102;52.014;-0.680;2023-05-13T04:54:01;10.20;;;7.00;;
57249;SDS011;43102;52.014;-0.680;2023-05-13T04:55:00;10.20;;;7.00;;
57249;SDS011;43102;52.014;-0.680;2023-05-13T04:56:00;10.20;;;7.00;;
57249;SDS011;43102;52.014;-0.680;2023-05-13T04:57:01;10.20;;;7.00;;
57249;SDS011;43102;52.014;-0.680;2023-05-13T04:58:00;10.20;;;7.00;;
57249;SDS011;43102;52.014;-0.680;2023-05-13T04:59:00;10.20;;;7.00;;
57249;SDS011;43102;52.014;-0.680;2023-05-13T05:00:00;10.20;;;7.00;;
57249;SDS011;43102;52.014;-0.680;2023-05-13T05:01:00;13.40;;;7.80;;
57249;SDS011;43102;52.014;-0.680;2023-05-13T05:02:00;13.40;;;7.80;;
57249;SDS011;43102;52.014;-0.680;2023-05-13T05:03:00;13.40;;;7.80;;
57249;SDS011;43102;52.014;-0.680;2023-05-13T05:04:01;13.40;;;7.80;;
57249;SDS011;43102;52.014;-0.680;2023-05-13T05:05:00;13.40;;;7.80;;
57249;SDS011;43102;52.014;-0.680;2023-05-13T05:06:00;13.40;;;7.80;;
57249;SDS011;43102;52.014;-0.680;2023-05-13T05:07:00;13.40;;;7.80;;
57249;SDS011;43102;52.014;-0.680;2023-05-13T05:08:00;13.40;;;7.80;;
57249;SDS011;43102;52.014;-0.680;2023-05-13T05:09:00;13.40;;;7.80;;
57249;SDS011;43102;52.014;-0.680;2023-05-13T05:10:00;13.40;;;7.80;;
57249;SDS011;43102;52.014;-0.680;2023-05-13T05:11:00;13.40;;;7.80;;
57249;SDS011;43102;52.014;-0.680;2023-05-13T05:12:00;13.40;;;7.80;;
57249;SDS011;43102;52.014;-0.680;2023-05-13T05:13:00;13.40;;;7.80;;
57249;SDS011;43102;52.014;-0.680;2023-05-13T05:14:00;13.40;;;7.80;;
57249;SDS011;43102;52.014;-0.680;2023-05-13T05:15:00;13.40;;;7.80;;
57249;SDS011;43102;52.014;-0.680;2023-05-13T05:16:00;13.40;;;7.80;;
57249;SDS011;43102;52.014;-0.680;2023-05-13T05:17:00;13.40;;;7.80;;
57249;SDS011;43102;52.014;-0.680;2023-05-13T05:18:00;13.40;;;7.80;;
57249;SDS011;43102;52.014;-0.680;2023-05-13T05:19:00;13.40;;;7.80;;
57249;SDS011;43102;52.014;-0.680;2023-05-13T05:20:00;13.40;;;7.80;;
57249;SDS011;43102;52.014;-0.680;2023-05-13T05:21:02;13.40;;;7.80;;
57249;SDS011;43102;52.014;-0.680;2023-05-13T05:22:00;13.40;;;7.80;;
57249;SDS011;43102;52.014;-0.680;2023-05-13T05:23:00;13.40;;;7.80;;
57249;SDS011;43102;52.014;-0.680;2023-05-13T05:24:00;13.40;;;7.80;;
57249;SDS011;43102;52.014;-0.680;2023-05-13T05:25:00;13.40;;;7.80;;
57249;SDS011;43102;52.014;-0.680;2023-05-13T05:26:10;13.40;;;7.80;;
57249;SDS011;43102;52.014;-0.680;2023-05-13T05:27:01;13.40;;;7.80;;
57249;SDS011;43102;52.014;-0.680;2023-05-13T05:28:03;13.40;;;7.80;;
57249;SDS011;43102;52.014;-0.680;2023-05-13T05:29:00;13.40;;;7.80;;
57249;SDS011;43102;52.014;-0.680;2023-05-13T05:30:00;13.40;;;7.80;;
57249;SDS011;43102;52.014;-0.680;2023-05-13T05:31:01;12.40;;;8.10;;
57249;SDS011;43102;52.014;-0.680;2023-05-13T05:32:00;12.40;;;8.10;;
57249;SDS011;43102;52.014;-0.680;2023-05-13T05:33:00;12.40;;;8.10;;
57249;SDS011;43102;52.014;-0.680;2023-05-13T05:34:00;12.40;;;8.10;;
57249;SDS011;43102;52.014;-0.680;2023-05-13T05:35:01;12.40;;;8.10;;
57249;SDS011;43102;52.014;-0.680;2023-05-13T05:36:00;12.40;;;8.10;;
57249;SDS011;43102;52.014;-0.680;2023-05-13T05:37:00;12.40;;;8.10;;
57249;SDS011;43102;52.014;-0.680;2023-05-13T05:38:00;12.40;;;8.10;;
57249;SDS011;43102;52.014;-0.680;2023-05-13T05:39:00;12.40;;;8.10;;
57249;SDS011;43102;52.014;-0.680;2023-05-13T05:40:00;12.40;;;8.10;;
57249;SDS011;43102;52.014;-0.680;2023-05-13T05:41:00;12.40;;;8.10;;
57249;SDS011;43102;52.014;-0.680;2023-05-13T05:42:00;12.40;;;8.10;;
57249;SDS011;43102;52.014;-0.680;2023-05-13T05:43:00;12.40;;;8.10;;
57249;SDS011;43102;52.014;-0.680;2023-05-13T05:44:00;12.40;;;8.10;;
57249;SDS011;43102;52.014;-0.680;2023-05-13T05:45:00;12.40;;;8.10;;
57249;SDS011;43102;52.014;-0.680;2023-05-13T05:46:00;12.40;;;8.10;;
57249;SDS011;43102;52.014;-0.680;2023-05-13T05:47:00;12.40;;;8.10;;
57249;SDS011;43102;52.014;-0.680;2023-05-13T05:48:00;12.40;;;8.10;;
57249;SDS011;43102;52.014;-0.680;2023-05-13T05:49:02;12.40;;;8.10;;
57249;SDS011;43102;52.014;-0.680;2023-05-13T05:50:00;12.40;;;8.10;;
57249;SDS011;43102;52.014;-0.680;2023-05-13T05:51:00;12.40;;;8.10;;
57249;SDS011;43102;52.014;-0.680;2023-05-13T05:52:00;12.40;;;8.10;;
57249;SDS011;43102;52.014;-0.680;2023-05-13T05:53:01;12.40;;;8.10;;
57249;SDS011;43102;52.014;-0.680;2023-05-13T05:54:00;12.40;;;8.10;;
57249;SDS011;43102;52.014;-0.680;2023-05-13T05:55:00;12.40;;;8.10;;
57249;SDS011;43102;52.014;-0.680;2023-05-13T05:56:00;12.40;;;8.10;;